sensor_id;sensor_type;location;lat;lon;timestamp;temperature;humidity
27896;DHT22;15241;48.374;10.876;2022-09-09T00:01:55;16.60;99.90
27896;DHT22;15241;48.374;10.876;2022-09-09T00:06:55;16.60;99.90
27896;DHT22;15241;48.374;10.876;2022-09-09T00:11:56;16.50;99.90
27896;DHT22;15241;48.374;10.876;2022-09-09T00:16:58;16.40;99.90
27896;DHT22;15241;48.374;10.876;2022-09-09T00:22:04;16.40;99.90
27896;DHT22;15241;48.374;10.876;2022-09-09T00:27:08;16.30;99.90
27896;DHT22;15241;48.374;10.876;2022-09-09T00:32:12;16.30;99.90
27896;DHT22;15241;48.374;10.876;2022-09-09T00:37:11;16.30;99.90
27896;DHT22;15241;48.374;10.876;2022-09-09T00:42:15;16.30;99.90
27896;DHT22;15241;48.374;10.876;2022-09-09T00:57:46;16.30;99.90
27896;DHT22;15241;48.374;10.876;2022-09-09T01:02:53;16.40;99.90
27896;DHT22;15241;48.374;10.876;2022-09-09T01:07:52;16.40;99.90
27896;DHT22;15241;48.374;10.876;2022-09-09T01:12:52;16.30;99.90
27896;DHT22;15241;48.374;10.876;2022-09-09T01:17:57;16.30;99.90
27896;DHT22;15241;48.374;10.876;2022-09-09T01:23:16;16.20;99.90
27896;DHT22;15241;48.374;10.876;2022-09-09T01:28:19;16.30;99.90
27896;DHT22;15241;48.374;10.876;2022-09-09T01:33:19;16.30;99.90
27896;DHT22;15241;48.374;10.876;2022-09-09T01:38:19;16.20;99.90
27896;DHT22;15241;48.374;10.876;2022-09-09T01:43:18;16.30;99.90
27896;DHT22;15241;48.374;10.876;2022-09-09T01:48:20;16.10;99.90
27896;DHT22;15241;48.374;10.876;2022-09-09T01:53:20;16.20;99.90
27896;DHT22;15241;48.374;10.876;2022-09-09T01:58:26;16.10;99.90
27896;DHT22;15241;48.374;10.876;2022-09-09T02:03:27;16.00;99.90
27896;DHT22;15241;48.374;10.876;2022-09-09T02:08:32;15.90;99.90
27896;DHT22;15241;48.374;10.876;2022-09-09T02:13:30;15.70;99.90
27896;DHT22;15241;48.374;10.876;2022-09-09T02:18:33;15.70;99.90
27896;DHT22;15241;48.374;10.876;2022-09-09T02:23:33;15.80;99.90
27896;DHT22;15241;48.374;10.876;2022-09-09T02:28:33;15.90;99.90
27896;DHT22;15241;48.374;10.876;2022-09-09T02:33:36;15.90;99.90
27896;DHT22;15241;48.374;10.876;2022-09-09T02:38:38;16.00;99.90
27896;DHT22;15241;48.374;10.876;2022-09-09T02:43:38;15.90;99.90
27896;DHT22;15241;48.374;10.876;2022-09-09T02:48:40;15.60;99.90
27896;DHT22;15241;48.374;10.876;2022-09-09T02:53:43;15.50;99.90
27896;DHT22;15241;48.374;10.876;2022-09-09T02:58:44;15.30;99.90
27896;DHT22;15241;48.374;10.876;2022-09-09T03:03:43;15.30;99.90
27896;DHT22;15241;48.374;10.876;2022-09-09T03:08:42;15.40;99.90
27896;DHT22;15241;48.374;10.876;2022-09-09T03:13:41;15.40;99.90
27896;DHT22;15241;48.374;10.876;2022-09-09T03:18:40;15.50;99.90
27896;DHT22;15241;48.374;10.876;2022-09-09T03:23:39;15.60;99.90
27896;DHT22;15241;48.374;10.876;2022-09-09T03:28:38;15.30;99.90
27896;DHT22;15241;48.374;10.876;2022-09-09T03:33:37;15.30;99.90
27896;DHT22;15241;48.374;10.876;2022-09-09T03:38:36;15.20;99.90
27896;DHT22;15241;48.374;10.876;2022-09-09T03:43:35;15.00;99.90
27896;DHT22;15241;48.374;10.876;2022-09-09T03:48:34;15.10;99.90
27896;DHT22;15241;48.374;10.876;2022-09-09T03:53:33;15.20;99.90
27896;DHT22;15241;48.374;10.876;2022-09-09T03:58:31;15.40;99.90
27896;DHT22;15241;48.374;10.876;2022-09-09T04:03:31;15.40;99.90
27896;DHT22;15241;48.374;10.876;2022-09-09T04:08:30;15.30;99.90
27896;DHT22;15241;48.374;10.876;2022-09-09T04:13:29;15.20;99.90
27896;DHT22;15241;48.374;10.876;2022-09-09T04:18:28;15.30;99.90
27896;DHT22;15241;48.374;10.876;2022-09-09T04:23:28;15.30;99.90
27896;DHT22;15241;48.374;10.876;2022-09-09T04:28:28;15.50;99.90
27896;DHT22;15241;48.374;10.876;2022-09-09T04:33:28;15.40;99.90
27896;DHT22;15241;48.374;10.876;2022-09-09T04:38:27;15.40;99.90
27896;DHT22;15241;48.374;10.876;2022-09-09T04:43:26;15.40;99.90
27896;DHT22;15241;48.374;10.876;2022-09-09T04:48:25;15.50;99.90
27896;DHT22;15241;48.374;10.876;2022-09-09T04:53:25;15.40;99.90
27896;DHT22;15241;48.374;10.876;2022-09-09T04:58:24;15.40;99.90
27896;DHT22;15241;48.374;10.876;2022-09-09T05:03:23;15.50;99.90
27896;DHT22;15241;48.374;10.876;2022-09-09T05:08:22;15.70;99.90
27896;DHT22;15241;48.374;10.876;2022-09-09T05:13:21;15.90;99.90
27896;DHT22;15241;48.374;10.876;2022-09-09T05:18:21;15.90;99.90
27896;DHT22;15241;48.374;10.876;2022-09-09T05:23:22;15.90;99.90
27896;DHT22;15241;48.374;10.876;2022-09-09T05:28:21;16.00;99.90
27896;DHT22;15241;48.374;10.876;2022-09-09T05:33:20;16.20;99.90
27896;DHT22;15241;48.374;10.876;2022-09-09T05:38:20;16.20;99.90
27896;DHT22;15241;48.374;10.876;2022-09-09T05:43:19;16.40;99.90
27896;DHT22;15241;48.374;10.876;2022-09-09T05:48:18;16.30;99.90
27896;DHT22;15241;48.374;10.876;2022-09-09T05:53:17;16.40;99.90
27896;DHT22;15241;48.374;10.876;2022-09-09T05:58:16;16.50;99.90
27896;DHT22;15241;48.374;10.876;2022-09-09T06:03:15;16.60;99.90
27896;DHT22;15241;48.374;10.876;2022-09-09T06:08:14;16.80;99.90
27896;DHT22;15241;48.374;10.876;2022-09-09T06:13:13;16.90;99.90
27896;DHT22;15241;48.374;10.876;2022-09-09T06:18:12;17.00;99.90
27896;DHT22;15241;48.374;10.876;2022-09-09T06:23:10;17.00;99.90
27896;DHT22;15241;48.374;10.876;2022-09-09T06:28:09;17.20;99.90
27896;DHT22;15241;48.374;10.876;2022-09-09T06:33:09;17.20;99.90
27896;DHT22;15241;48.374;10.876;2022-09-09T06:38:08;17.20;99.90
27896;DHT22;15241;48.374;10.876;2022-09-09T06:43:07;17.30;99.90
27896;DHT22;15241;48.374;10.876;2022-09-09T06:48:07;17.50;99.90
27896;DHT22;15241;48.374;10.876;2022-09-09T06:53:08;17.60;99.90
27896;DHT22;15241;48.374;10.876;2022-09-09T06:58:09;17.70;99.90
27896;DHT22;15241;48.374;10.876;2022-09-09T07:03:09;17.90;99.90
27896;DHT22;15241;48.374;10.876;2022-09-09T07:08:08;17.70;99.90
27896;DHT22;15241;48.374;10.876;2022-09-09T07:13:07;17.90;99.90
27896;DHT22;15241;48.374;10.876;2022-09-09T07:18:06;18.00;99.90
27896;DHT22;15241;48.374;10.876;2022-09-09T07:23:05;18.10;99.90
27896;DHT22;15241;48.374;10.876;2022-09-09T07:28:04;18.20;99.90
27896;DHT22;15241;48.374;10.876;2022-09-09T07:33:03;18.20;99.90
27896;DHT22;15241;48.374;10.876;2022-09-09T07:38:02;18.10;99.90
27896;DHT22;15241;48.374;10.876;2022-09-09T07:43:01;18.20;99.90
27896;DHT22;15241;48.374;10.876;2022-09-09T07:48:00;18.30;99.90
27896;DHT22;15241;48.374;10.876;2022-09-09T07:52:59;18.30;99.90
27896;DHT22;15241;48.374;10.876;2022-09-09T07:57:58;18.40;99.90
27896;DHT22;15241;48.374;10.876;2022-09-09T08:02:56;18.40;99.90
27896;DHT22;15241;48.374;10.876;2022-09-09T08:07:55;18.60;99.90
27896;DHT22;15241;48.374;10.876;2022-09-09T08:12:54;18.90;99.90
27896;DHT22;15241;48.374;10.876;2022-09-09T08:17:53;19.10;99.90
27896;DHT22;15241;48.374;10.876;2022-09-09T08:22:52;19.40;99.90
27896;DHT22;15241;48.374;10.876;2022-09-09T08:27:52;19.60;99.90
27896;DHT22;15241;48.374;10.876;2022-09-09T08:32:53;19.90;99.90
27896;DHT22;15241;48.374;10.876;2022-09-09T08:37:54;20.10;99.90
27896;DHT22;15241;48.374;10.876;2022-09-09T08:42:55;20.10;99.90
27896;DHT22;15241;48.374;10.876;2022-09-09T08:48:10;20.10;99.90
27896;DHT22;15241;48.374;10.876;2022-09-09T08:53:15;20.30;99.90
27896;DHT22;15241;48.374;10.876;2022-09-09T08:58:15;20.40;99.90
27896;DHT22;15241;48.374;10.876;2022-09-09T09:03:18;20.30;99.90
27896;DHT22;15241;48.374;10.876;2022-09-09T09:08:24;20.40;99.90
27896;DHT22;15241;48.374;10.876;2022-09-09T09:13:20;20.70;99.90
27896;DHT22;15241;48.374;10.876;2022-09-09T09:18:20;20.80;99.90
27896;DHT22;15241;48.374;10.876;2022-09-09T09:23:23;20.90;99.90
27896;DHT22;15241;48.374;10.876;2022-09-09T09:28:25;21.10;99.90
27896;DHT22;15241;48.374;10.876;2022-09-09T09:33:26;21.10;99.90
27896;DHT22;15241;48.374;10.876;2022-09-09T09:38:27;21.30;99.90
27896;DHT22;15241;48.374;10.876;2022-09-09T09:43:28;21.80;99.90
27896;DHT22;15241;48.374;10.876;2022-09-09T09:48:28;22.00;99.90
27896;DHT22;15241;48.374;10.876;2022-09-09T09:53:30;21.90;99.90
27896;DHT22;15241;48.374;10.876;2022-09-09T09:58:32;21.90;99.90
27896;DHT22;15241;48.374;10.876;2022-09-09T10:03:33;21.90;99.90
27896;DHT22;15241;48.374;10.876;2022-09-09T10:08:44;21.80;99.90
27896;DHT22;15241;48.374;10.876;2022-09-09T10:13:41;21.90;99.90
27896;DHT22;15241;48.374;10.876;2022-09-09T10:23:57;21.90;99.90
27896;DHT22;15241;48.374;10.876;2022-09-09T10:29:12;22.10;99.90
27896;DHT22;15241;48.374;10.876;2022-09-09T10:39:32;22.00;99.90
27896;DHT22;15241;48.374;10.876;2022-09-09T10:44:38;22.00;99.90
27896;DHT22;15241;48.374;10.876;2022-09-09T10:49:52;22.10;99.90
27896;DHT22;15241;48.374;10.876;2022-09-09T10:54:55;22.00;99.90
27896;DHT22;15241;48.374;10.876;2022-09-09T10:59:53;21.90;99.90
27896;DHT22;15241;48.374;10.876;2022-09-09T11:04:55;21.80;99.90
27896;DHT22;15241;48.374;10.876;2022-09-09T11:09:59;21.90;99.90
27896;DHT22;15241;48.374;10.876;2022-09-09T11:20:13;22.20;99.90
27896;DHT22;15241;48.374;10.876;2022-09-09T11:25:14;22.30;99.90
27896;DHT22;15241;48.374;10.876;2022-09-09T11:30:21;21.80;99.90
27896;DHT22;15241;48.374;10.876;2022-09-09T11:35:30;21.40;99.90
27896;DHT22;15241;48.374;10.876;2022-09-09T11:40:31;21.40;99.90
27896;DHT22;15241;48.374;10.876;2022-09-09T11:45:32;21.50;99.90
27896;DHT22;15241;48.374;10.876;2022-09-09T11:50:34;21.40;99.90
27896;DHT22;15241;48.374;10.876;2022-09-09T11:55:35;21.90;99.90
27896;DHT22;15241;48.374;10.876;2022-09-09T12:00:36;22.10;99.90
27896;DHT22;15241;48.374;10.876;2022-09-09T12:05:40;22.10;99.90
27896;DHT22;15241;48.374;10.876;2022-09-09T12:10:41;23.00;99.90
27896;DHT22;15241;48.374;10.876;2022-09-09T12:15:49;22.90;99.90
27896;DHT22;15241;48.374;10.876;2022-09-09T12:20:57;23.00;99.90
27896;DHT22;15241;48.374;10.876;2022-09-09T12:26:21;22.80;99.90
27896;DHT22;15241;48.374;10.876;2022-09-09T12:31:24;22.70;99.90
27896;DHT22;15241;48.374;10.876;2022-09-09T12:36:27;22.30;99.90
27896;DHT22;15241;48.374;10.876;2022-09-09T12:41:27;21.90;99.90
27896;DHT22;15241;48.374;10.876;2022-09-09T12:51:36;22.20;99.90
27896;DHT22;15241;48.374;10.876;2022-09-09T12:56:36;22.90;99.90
27896;DHT22;15241;48.374;10.876;2022-09-09T13:01:35;22.70;99.90
27896;DHT22;15241;48.374;10.876;2022-09-09T13:06:36;23.90;99.90
27896;DHT22;15241;48.374;10.876;2022-09-09T13:11:37;24.70;99.90
27896;DHT22;15241;48.374;10.876;2022-09-09T13:16:37;25.60;99.90
27896;DHT22;15241;48.374;10.876;2022-09-09T13:21:38;26.10;99.90
27896;DHT22;15241;48.374;10.876;2022-09-09T13:26:38;25.60;99.90
27896;DHT22;15241;48.374;10.876;2022-09-09T13:31:39;26.40;99.90
27896;DHT22;15241;48.374;10.876;2022-09-09T13:36:38;27.30;99.90
27896;DHT22;15241;48.374;10.876;2022-09-09T13:41:43;28.00;99.90
27896;DHT22;15241;48.374;10.876;2022-09-09T13:46:43;27.80;99.90
27896;DHT22;15241;48.374;10.876;2022-09-09T13:51:44;28.90;99.90
27896;DHT22;15241;48.374;10.876;2022-09-09T13:56:44;28.20;98.70
27896;DHT22;15241;48.374;10.876;2022-09-09T14:01:43;26.80;99.90
27896;DHT22;15241;48.374;10.876;2022-09-09T14:06:42;26.10;99.90
27896;DHT22;15241;48.374;10.876;2022-09-09T14:11:41;25.10;99.90
27896;DHT22;15241;48.374;10.876;2022-09-09T14:16:41;23.30;99.90
27896;DHT22;15241;48.374;10.876;2022-09-09T14:21:40;22.60;99.90
27896;DHT22;15241;48.374;10.876;2022-09-09T14:26:39;22.60;99.90
27896;DHT22;15241;48.374;10.876;2022-09-09T14:31:38;23.60;99.90
27896;DHT22;15241;48.374;10.876;2022-09-09T14:36:37;24.60;99.90
27896;DHT22;15241;48.374;10.876;2022-09-09T14:41:36;27.00;99.90
27896;DHT22;15241;48.374;10.876;2022-09-09T14:46:35;26.70;99.90
27896;DHT22;15241;48.374;10.876;2022-09-09T14:51:34;27.40;99.90
27896;DHT22;15241;48.374;10.876;2022-09-09T14:56:34;26.50;99.90
27896;DHT22;15241;48.374;10.876;2022-09-09T15:01:33;26.00;99.90
27896;DHT22;15241;48.374;10.876;2022-09-09T15:06:33;26.00;99.90
27896;DHT22;15241;48.374;10.876;2022-09-09T15:11:35;29.00;99.90
27896;DHT22;15241;48.374;10.876;2022-09-09T15:16:35;30.20;99.80
27896;DHT22;15241;48.374;10.876;2022-09-09T15:21:36;30.00;99.90
27896;DHT22;15241;48.374;10.876;2022-09-09T15:26:35;28.90;99.10
27896;DHT22;15241;48.374;10.876;2022-09-09T15:31:34;28.90;99.90
27896;DHT22;15241;48.374;10.876;2022-09-09T15:36:36;28.70;99.20
27896;DHT22;15241;48.374;10.876;2022-09-09T15:41:35;28.50;99.90
27896;DHT22;15241;48.374;10.876;2022-09-09T15:46:35;28.10;99.90
27896;DHT22;15241;48.374;10.876;2022-09-09T15:51:34;27.90;99.90
27896;DHT22;15241;48.374;10.876;2022-09-09T15:56:33;27.10;99.90
27896;DHT22;15241;48.374;10.876;2022-09-09T16:01:32;27.30;99.90
27896;DHT22;15241;48.374;10.876;2022-09-09T16:06:31;27.30;99.90
27896;DHT22;15241;48.374;10.876;2022-09-09T16:11:32;26.80;99.90
27896;DHT22;15241;48.374;10.876;2022-09-09T16:16:32;26.90;99.90
27896;DHT22;15241;48.374;10.876;2022-09-09T16:21:32;26.50;99.90
27896;DHT22;15241;48.374;10.876;2022-09-09T16:26:33;26.20;99.90
27896;DHT22;15241;48.374;10.876;2022-09-09T16:31:33;25.70;99.90
27896;DHT22;15241;48.374;10.876;2022-09-09T16:36:33;25.40;99.90
27896;DHT22;15241;48.374;10.876;2022-09-09T16:41:33;25.20;99.90
27896;DHT22;15241;48.374;10.876;2022-09-09T16:46:33;25.00;99.90
27896;DHT22;15241;48.374;10.876;2022-09-09T16:51:34;24.80;99.90
27896;DHT22;15241;48.374;10.876;2022-09-09T16:56:35;24.10;99.90
27896;DHT22;15241;48.374;10.876;2022-09-09T17:01:35;23.90;99.90
27896;DHT22;15241;48.374;10.876;2022-09-09T17:06:35;23.60;99.90
27896;DHT22;15241;48.374;10.876;2022-09-09T17:11:35;23.20;99.90
27896;DHT22;15241;48.374;10.876;2022-09-09T17:16:34;23.00;99.90
27896;DHT22;15241;48.374;10.876;2022-09-09T17:21:34;22.90;99.90
27896;DHT22;15241;48.374;10.876;2022-09-09T17:26:33;22.70;99.90
27896;DHT22;15241;48.374;10.876;2022-09-09T17:31:32;22.40;99.90
27896;DHT22;15241;48.374;10.876;2022-09-09T17:36:32;22.20;99.90
27896;DHT22;15241;48.374;10.876;2022-09-09T17:41:33;22.00;99.90
27896;DHT22;15241;48.374;10.876;2022-09-09T17:46:34;21.80;99.90
27896;DHT22;15241;48.374;10.876;2022-09-09T17:51:34;21.50;99.90
27896;DHT22;15241;48.374;10.876;2022-09-09T17:56:33;21.40;99.90
27896;DHT22;15241;48.374;10.876;2022-09-09T18:01:33;21.30;99.90
27896;DHT22;15241;48.374;10.876;2022-09-09T18:06:35;21.10;99.90
27896;DHT22;15241;48.374;10.876;2022-09-09T18:11:36;19.60;99.90
27896;DHT22;15241;48.374;10.876;2022-09-09T18:16:35;18.90;99.90
27896;DHT22;15241;48.374;10.876;2022-09-09T18:21:34;18.50;99.90
27896;DHT22;15241;48.374;10.876;2022-09-09T18:26:34;18.10;99.90
27896;DHT22;15241;48.374;10.876;2022-09-09T18:31:34;18.10;99.90
27896;DHT22;15241;48.374;10.876;2022-09-09T18:36:36;17.50;99.90
27896;DHT22;15241;48.374;10.876;2022-09-09T18:41:40;17.30;99.90
27896;DHT22;15241;48.374;10.876;2022-09-09T18:46:37;16.80;99.90
27896;DHT22;15241;48.374;10.876;2022-09-09T18:51:36;16.60;99.90
27896;DHT22;15241;48.374;10.876;2022-09-09T18:56:36;16.60;99.90
27896;DHT22;15241;48.374;10.876;2022-09-09T19:01:35;16.60;99.90
27896;DHT22;15241;48.374;10.876;2022-09-09T19:06:36;16.70;99.90
27896;DHT22;15241;48.374;10.876;2022-09-09T19:11:35;16.60;99.90
27896;DHT22;15241;48.374;10.876;2022-09-09T19:16:35;16.60;99.90
27896;DHT22;15241;48.374;10.876;2022-09-09T19:21:36;16.60;99.90
27896;DHT22;15241;48.374;10.876;2022-09-09T19:26:37;16.50;99.90
27896;DHT22;15241;48.374;10.876;2022-09-09T19:31:37;16.50;99.90
27896;DHT22;15241;48.374;10.876;2022-09-09T19:36:36;16.40;99.90
27896;DHT22;15241;48.374;10.876;2022-09-09T19:41:35;16.30;99.90
27896;DHT22;15241;48.374;10.876;2022-09-09T19:46:36;16.20;99.90
27896;DHT22;15241;48.374;10.876;2022-09-09T19:51:36;16.20;99.90
27896;DHT22;15241;48.374;10.876;2022-09-09T19:56:36;16.20;99.90
27896;DHT22;15241;48.374;10.876;2022-09-09T20:01:37;16.00;99.90
27896;DHT22;15241;48.374;10.876;2022-09-09T20:06:39;16.00;99.90
27896;DHT22;15241;48.374;10.876;2022-09-09T20:11:38;16.10;99.90
27896;DHT22;15241;48.374;10.876;2022-09-09T20:16:38;16.20;99.90
27896;DHT22;15241;48.374;10.876;2022-09-09T20:21:39;16.10;99.90
27896;DHT22;15241;48.374;10.876;2022-09-09T20:26:38;16.20;99.90
27896;DHT22;15241;48.374;10.876;2022-09-09T20:31:39;16.10;99.90
27896;DHT22;15241;48.374;10.876;2022-09-09T20:36:39;16.00;99.90
27896;DHT22;15241;48.374;10.876;2022-09-09T20:41:38;16.20;99.90
27896;DHT22;15241;48.374;10.876;2022-09-09T20:46:39;16.20;99.90
27896;DHT22;15241;48.374;10.876;2022-09-09T20:51:38;16.20;99.90
27896;DHT22;15241;48.374;10.876;2022-09-09T20:56:39;16.30;99.90
27896;DHT22;15241;48.374;10.876;2022-09-09T21:01:39;16.30;99.90
27896;DHT22;15241;48.374;10.876;2022-09-09T21:06:38;16.30;99.90
27896;DHT22;15241;48.374;10.876;2022-09-09T21:11:37;16.20;99.90
27896;DHT22;15241;48.374;10.876;2022-09-09T21:16:36;15.90;99.90
27896;DHT22;15241;48.374;10.876;2022-09-09T21:21:35;15.90;99.90
27896;DHT22;15241;48.374;10.876;2022-09-09T21:26:34;16.00;99.90
27896;DHT22;15241;48.374;10.876;2022-09-09T21:31:33;16.10;99.90
27896;DHT22;15241;48.374;10.876;2022-09-09T21:36:31;16.10;99.90
27896;DHT22;15241;48.374;10.876;2022-09-09T21:41:30;15.90;99.90
27896;DHT22;15241;48.374;10.876;2022-09-09T21:46:29;15.90;99.90
27896;DHT22;15241;48.374;10.876;2022-09-09T21:51:28;15.80;99.90
27896;DHT22;15241;48.374;10.876;2022-09-09T21:56:27;15.80;99.90
27896;DHT22;15241;48.374;10.876;2022-09-09T22:01:26;15.70;99.90
27896;DHT22;15241;48.374;10.876;2022-09-09T22:06:25;15.60;99.90
27896;DHT22;15241;48.374;10.876;2022-09-09T22:11:24;15.60;99.90
27896;DHT22;15241;48.374;10.876;2022-09-09T22:16:23;15.50;99.90
27896;DHT22;15241;48.374;10.876;2022-09-09T22:21:23;15.50;99.90
27896;DHT22;15241;48.374;10.876;2022-09-09T22:26:22;15.30;99.90
27896;DHT22;15241;48.374;10.876;2022-09-09T22:31:21;15.30;99.90
27896;DHT22;15241;48.374;10.876;2022-09-09T22:36:21;15.40;99.90
27896;DHT22;15241;48.374;10.876;2022-09-09T22:41:20;15.30;99.90
27896;DHT22;15241;48.374;10.876;2022-09-09T22:46:19;15.30;99.90
27896;DHT22;15241;48.374;10.876;2022-09-09T22:51:18;15.30;99.90
27896;DHT22;15241;48.374;10.876;2022-09-09T22:56:18;15.30;99.90
27896;DHT22;15241;48.374;10.876;2022-09-09T23:01:18;15.20;99.90
27896;DHT22;15241;48.374;10.876;2022-09-09T23:06:19;15.10;99.90
27896;DHT22;15241;48.374;10.876;2022-09-09T23:11:18;15.00;99.90
27896;DHT22;15241;48.374;10.876;2022-09-09T23:16:20;15.10;99.90
27896;DHT22;15241;48.374;10.876;2022-09-09T23:26:27;15.00;99.90
27896;DHT22;15241;48.374;10.876;2022-09-09T23:31:28;14.90;99.90
27896;DHT22;15241;48.374;10.876;2022-09-09T23:36:28;14.80;99.90
27896;DHT22;15241;48.374;10.876;2022-09-09T23:41:27;14.80;99.90
27896;DHT22;15241;48.374;10.876;2022-09-09T23:46:28;14.90;99.90
27896;DHT22;15241;48.374;10.876;2022-09-09T23:51:29;14.80;99.90
27896;DHT22;15241;48.374;10.876;2022-09-09T23:56:30;14.70;99.90
